Time;durP1;ratioP1;P1;durP2;ratioP2;P2;SDS_P1;SDS_P2;PMS_P1;PMS_P2;Temp;Humidity;BMP_temperature;BMP_pressure;BME280_temperature;BME280_humidity;BME280_pressure;Samples;Min_cycle;Max_cycle;Signal;HPM_P1;HPM_P2
2022/07/26 00:02:05;;;;;;;5.53;3.72;;;;;;;20.93;57.74;100373.01;1616347;86;21124;-85
2022/07/26 00:04:31;;;;;;;3.90;3.50;;;;;;;20.94;57.76;100373.88;1653172;84;21601;-85
2022/07/26 00:06:58;;;;;;;4.62;3.60;;;;;;;20.94;57.75;100376.09;1653501;84;21580;-85
2022/07/26 00:09:27;;;;;;;5.22;3.70;;;;;;;20.94;57.73;100372.08;1645172;84;21753;-85
2022/07/26 00:11:53;;;;;;;8.45;3.70;;;;;;;20.94;57.70;100373.41;1648438;84;21059;-86
2022/07/26 00:14:20;;;;;;;10.00;4.15;;;;;;;20.96;57.70;100357.33;1653672;84;21099;-86
2022/07/26 00:16:47;;;;;;;5.33;4.10;;;;;;;20.96;57.64;100355.52;1651018;85;21078;-85
2022/07/26 00:19:51;;;;;;;9.63;3.72;;;;;;;20.96;57.57;100357.33;1648954;85;21142;-85
2022/07/26 00:23:14;;;;;;;5.25;3.98;;;;;;;20.96;57.57;100359.53;1649509;85;21812;-85
2022/07/26 00:26:17;;;;;;;5.65;3.52;;;;;;;20.97;57.53;100351.95;1632217;85;21616;-84
2022/07/26 00:28:44;;;;;;;6.10;3.50;;;;;;;20.98;57.50;100348.80;1647345;85;21668;-87
2022/07/26 00:31:11;;;;;;;7.60;4.47;;;;;;;20.98;57.45;100335.42;1644900;85;21973;-84
2022/07/26 00:33:38;;;;;;;5.30;3.62;;;;;;;20.98;57.39;100347.47;1649391;85;21102;-86
2022/07/26 00:36:06;;;;;;;4.03;3.62;;;;;;;20.99;57.38;100342.55;1648822;85;21969;-86
2022/07/26 00:38:33;;;;;;;5.22;3.42;;;;;;;20.99;57.37;100341.68;1638003;86;21389;-86
2022/07/26 00:40:59;;;;;;;5.08;3.52;;;;;;;21.00;57.36;100340.74;1650774;85;21153;-85
2022/07/26 00:43:28;;;;;;;8.83;3.85;;;;;;;21.01;57.33;100355.43;1641789;85;21126;-85
2022/07/26 00:45:55;;;;;;;4.20;3.40;;;;;;;21.01;57.31;100354.56;1649223;84;21154;-86
2022/07/26 00:48:22;;;;;;;5.05;3.90;;;;;;;21.04;57.33;100351.35;1649449;85;21731;-85
2022/07/26 00:50:49;;;;;;;5.67;3.70;;;;;;;21.04;57.35;100340.65;1648445;85;21062;-86
2022/07/26 00:53:20;;;;;;;4.30;3.40;;;;;;;21.05;57.38;100348.20;1669503;85;21132;-85
2022/07/26 00:55:49;;;;;;;4.12;3.15;;;;;;;21.05;57.38;100348.20;1674340;84;21025;-86
2022/07/26 00:58:17;;;;;;;4.75;3.55;;;;;;;21.05;57.35;100354.89;1674308;84;22089;-85
2022/07/26 01:03:54;;;;;;;5.90;3.72;;;;;;;21.06;57.37;100358.87;1672614;85;21084;-85
2022/07/26 01:06:21;;;;;;;4.00;3.50;;;;;;;21.06;57.40;100351.29;1655437;84;21487;-86
2022/07/26 01:08:47;;;;;;;4.90;3.62;;;;;;;21.06;57.41;100347.27;1669115;85;21887;-86
2022/07/26 01:11:14;;;;;;;5.35;3.75;;;;;;;21.06;57.41;100339.25;1692686;84;20968;-86
2022/07/26 01:13:48;;;;;;;7.75;3.72;;;;;;;21.05;57.42;100337.50;1682390;84;21567;-87
2022/07/26 01:16:14;;;;;;;7.12;4.33;;;;;;;21.04;57.42;100343.33;1680660;84;21052;-86
2022/07/26 01:18:42;;;;;;;4.58;3.85;;;;;;;21.04;57.45;100345.09;1682021;83;21308;-86
2022/07/26 01:21:09;;;;;;;5.10;3.83;;;;;;;21.04;57.43;100347.77;1682477;83;21135;-86
2022/07/26 01:23:37;;;;;;;4.50;3.92;;;;;;;21.04;57.46;100346.44;1682606;83;22240;-86
2022/07/26 01:26:04;;;;;;;5.33;3.55;;;;;;;21.04;57.48;100346.44;1682751;83;21815;-86
2022/07/26 01:28:36;;;;;;;5.30;3.50;;;;;;;21.04;57.45;100339.75;1682114;83;21055;-86
2022/07/26 01:31:07;;;;;;;6.55;3.67;;;;;;;21.05;57.46;100338.84;1660306;85;21153;-86
2022/07/26 01:33:34;;;;;;;5.28;3.72;;;;;;;21.04;57.48;100331.28;1705475;83;21133;-86
2022/07/26 01:36:00;;;;;;;6.97;3.62;;;;;;;21.04;57.47;100326.36;1708788;82;21100;-86
2022/07/26 01:38:27;;;;;;;3.90;3.52;;;;;;;21.03;57.46;100323.29;1687725;83;21736;-86
2022/07/26 01:40:54;;;;;;;3.62;3.33;;;;;;;21.02;57.43;100317.06;1688791;83;21109;-87
2022/07/26 01:43:21;;;;;;;4.97;3.65;;;;;;;21.02;57.42;100318.84;1692721;82;21073;-86
2022/07/26 01:45:47;;;;;;;4.50;3.47;;;;;;;21.00;57.43;100321.55;1682236;83;21374;-86
2022/07/26 01:48:14;;;;;;;4.87;3.40;;;;;;;20.97;57.46;100318.50;1682460;83;20960;-86
2022/07/26 01:50:41;;;;;;;6.10;3.20;;;;;;;20.97;57.47;100321.17;1682501;83;21860;-86
2022/07/26 01:53:07;;;;;;;4.53;3.15;;;;;;;20.96;57.55;100315.39;1682523;83;21058;-86
2022/07/26 01:55:35;;;;;;;5.00;3.10;;;;;;;20.95;57.56;100320.34;1682398;83;22112;-86
2022/07/26 01:58:03;;;;;;;3.45;3.15;;;;;;;20.95;57.55;100319.00;1682808;83;21055;-85
2022/07/26 02:00:30;;;;;;;7.72;3.40;;;;;;;20.95;57.61;100310.10;1682548;83;21601;-86
2022/07/26 02:02:57;;;;;;;3.83;3.35;;;;;;;20.93;57.62;100303.91;1663340;83;22448;-86
2022/07/26 02:05:24;;;;;;;4.47;3.42;;;;;;;20.92;57.68;100315.05;1682727;83;21113;-86
2022/07/26 02:07:50;;;;;;;4.65;3.80;;;;;;;20.91;57.71;100299.94;1682739;83;21133;-86
2022/07/26 02:10:17;;;;;;;6.85;3.45;;;;;;;20.91;57.74;100313.31;1682702;83;21086;-86
2022/07/26 02:12:44;;;;;;;4.65;3.70;;;;;;;20.89;57.77;100307.55;1682751;83;21069;-86
2022/07/26 02:15:12;;;;;;;3.70;3.40;;;;;;;20.88;57.83;100309.83;1682693;83;21704;-86
2022/07/26 02:17:39;;;;;;;3.95;3.40;;;;;;;20.86;57.95;100299.16;1681767;83;21745;-86
2022/07/26 02:20:07;;;;;;;8.68;3.80;;;;;;;20.86;58.11;100306.31;1683433;83;21078;-86
2022/07/26 02:22:34;;;;;;;6.53;3.60;;;;;;;20.84;58.15;100298.79;1679096;83;21079;-86
2022/07/26 02:25:00;;;;;;;7.28;3.30;;;;;;;20.84;58.17;100303.67;1681480;84;21084;-86
2022/07/26 02:27:27;;;;;;;6.67;3.47;;;;;;;20.82;58.19;100294.80;1679735;83;21702;-86
2022/07/26 02:29:54;;;;;;;6.22;3.60;;;;;;;20.81;58.27;100301.53;1682943;83;21109;-86
2022/07/26 02:32:21;;;;;;;5.35;3.65;;;;;;;20.80;58.33;100298.41;1663430;83;21517;-86
2022/07/26 02:34:47;;;;;;;6.12;3.62;;;;;;;20.81;58.36;100307.75;1682848;83;21062;-86
2022/07/26 02:37:14;;;;;;;3.92;3.50;;;;;;;20.82;58.45;100323.36;1682960;83;22533;-86
2022/07/26 02:39:41;;;;;;;5.42;3.90;;;;;;;20.81;58.48;100321.59;1682901;83;23110;-86
2022/07/26 02:42:08;;;;;;;3.65;3.20;;;;;;;20.78;58.51;100323.42;1682314;83;21562;-86
2022/07/26 02:44:35;;;;;;;3.60;3.25;;;;;;;20.81;58.57;100337.64;1682783;83;20978;-86
2022/07/26 02:47:02;;;;;;;4.60;3.42;;;;;;;20.78;58.58;100324.77;1682688;83;21143;-86
2022/07/26 02:49:29;;;;;;;7.37;3.52;;;;;;;20.77;58.63;100328.34;1682849;83;21161;-86
2022/07/26 02:51:55;;;;;;;5.97;3.25;;;;;;;20.78;58.66;100339.47;1682911;83;21759;-86
2022/07/26 02:54:22;;;;;;;7.25;3.35;;;;;;;20.78;58.73;100343.48;1680568;83;21087;-86
2022/07/26 02:56:49;;;;;;;9.13;4.72;;;;;;;20.78;58.71;100336.80;1677536;83;21070;-86
2022/07/26 02:59:15;;;;;;;8.30;4.75;;;;;;;20.78;59.55;100341.28;1680834;84;21103;-86
2022/07/26 03:01:42;;;;;;;6.67;4.22;;;;;;;20.75;60.02;100340.00;1681287;84;21059;-86
2022/07/26 03:04:11;;;;;;;9.50;4.25;;;;;;;20.69;60.69;100345.03;1682585;85;21772;-86
2022/07/26 03:06:38;;;;;;;4.72;4.30;;;;;;;20.62;61.12;100346.09;1682773;84;21106;-86
2022/07/26 03:09:07;;;;;;;6.80;4.60;;;;;;;20.58;61.64;100343.91;1682430;85;21139;-86
2022/07/26 03:11:33;;;;;;;4.83;4.25;;;;;;;20.57;61.93;100342.16;1681650;84;21151;-86
2022/07/26 03:14:00;;;;;;;7.67;4.35;;;;;;;20.56;62.29;100343.06;1682857;84;21064;-86
2022/07/26 03:16:27;;;;;;;4.42;4.00;;;;;;;20.54;62.47;100352.05;1682218;83;21791;-86
2022/07/26 03:18:53;;;;;;;4.95;4.17;;;;;;;20.52;62.74;100348.53;1670538;84;22448;-86
2022/07/26 03:21:20;;;;;;;5.05;4.42;;;;;;;20.51;63.00;100362.80;1682801;84;21130;-86
2022/07/26 03:23:47;;;;;;;9.38;4.83;;;;;;;20.52;63.14;100372.59;1682043;85;21999;-85
2022/07/26 03:26:14;;;;;;;8.00;4.55;;;;;;;20.48;63.13;100382.94;1682363;83;21654;-86
2022/07/26 03:28:44;;;;;;;10.03;4.30;;;;;;;20.45;63.13;100380.31;1677409;83;22969;-85
2022/07/26 03:31:11;;;;;;;6.35;4.37;;;;;;;20.44;63.26;100368.75;1705218;82;21073;-86
2022/07/26 03:33:40;;;;;;;5.67;4.25;;;;;;;20.47;63.30;100361.11;1705292;82;21145;-85
2022/07/26 03:36:09;;;;;;;4.20;3.80;;;;;;;20.53;63.34;100364.54;1670457;83;21127;-85
2022/07/26 03:38:36;;;;;;;5.72;3.87;;;;;;;20.58;63.36;100366.63;1676898;83;21382;-85
2022/07/26 03:41:02;;;;;;;6.00;4.00;;;;;;;20.62;63.11;100371.95;1696975;83;22435;-86
2022/07/26 03:43:29;;;;;;;8.53;4.22;;;;;;;20.65;63.34;100374.11;1682819;83;21573;-85
2022/07/26 03:45:58;;;;;;;8.45;4.40;;;;;;;20.69;63.39;100394.98;1673851;83;21592;-85
2022/07/26 03:48:24;;;;;;;7.35;4.53;;;;;;;20.71;63.54;100418.55;1679320;83;21079;-86
2022/07/26 03:50:51;;;;;;;8.63;4.70;;;;;;;20.73;63.90;100418.06;1681364;83;21101;-85
2022/07/26 03:53:19;;;;;;;10.68;5.12;;;;;;;20.72;64.32;100428.32;1681037;83;21102;-85
2022/07/26 03:58:37;;;;;;;8.40;4.70;;;;;;;20.61;64.70;100405.84;1699419;82;21298;-85
2022/07/26 04:01:04;;;;;;;8.03;5.40;;;;;;;20.58;65.31;100400.52;1682248;83;21056;-85
2022/07/26 04:03:30;;;;;;;7.35;5.12;;;;;;;20.56;65.55;100410.37;1677223;83;21547;-85
2022/07/26 04:05:57;;;;;;;8.70;4.87;;;;;;;20.53;65.79;100404.65;1682068;83;21764;-85
2022/07/26 04:08:26;;;;;;;10.65;5.33;;;;;;;20.51;66.10;100397.55;1680441;83;21612;-85
2022/07/26 04:10:52;;;;;;;8.18;5.20;;;;;;;20.50;66.34;100390.46;1681777;83;21104;-85
2022/07/26 04:13:22;;;;;;;8.88;5.28;;;;;;;20.49;66.61;100386.89;1682538;85;21151;-85
2022/07/26 04:15:48;;;;;;;9.75;5.10;;;;;;;20.49;66.86;100388.22;1682142;83;21115;-85
2022/07/26 04:18:15;;;;;;;8.08;5.70;;;;;;;20.52;67.05;100392.64;1665964;83;21790;-84
2022/07/26 04:20:42;;;;;;;9.83;5.60;;;;;;;20.57;67.11;100390.72;1681979;83;21105;-84
2022/07/26 04:23:09;;;;;;;6.50;5.15;;;;;;;20.66;67.29;100391.02;1674946;84;21591;-84
2022/07/26 04:25:45;;;;;;;9.23;5.83;;;;;;;20.73;67.45;100378.81;1674691;85;21103;-85
2022/07/26 04:28:11;;;;;;;7.35;5.80;;;;;;;20.85;67.43;100384.33;1667462;84;21601;-86
2022/07/26 04:30:38;;;;;;;7.95;5.62;;;;;;;20.96;67.65;100394.31;1661294;85;21741;-86
2022/07/26 04:33:04;;;;;;;8.73;4.95;;;;;;;21.05;67.72;100388.34;1680549;84;21074;-86
2022/07/26 04:35:36;;;;;;;7.15;5.10;;;;;;;21.10;67.86;100387.31;1676512;83;21099;-86
2022/07/26 04:38:04;;;;;;;9.48;5.70;;;;;;;21.20;67.81;100390.64;1676538;84;21183;-87
2022/07/26 04:40:34;;;;;;;8.38;5.17;;;;;;;21.22;67.61;100393.29;1667440;85;21119;-88
2022/07/26 04:43:01;;;;;;;12.20;5.90;;;;;;;21.20;67.66;100393.32;1666820;84;21763;-87
2022/07/26 04:45:29;;;;;;;16.12;6.83;;;;;;;21.23;67.86;100409.75;1647465;84;21096;-87
2022/07/26 04:47:56;;;;;;;15.80;6.17;;;;;;;21.23;67.86;100409.75;1676718;84;21099;-87
2022/07/26 04:50:26;;;;;;;7.78;6.00;;;;;;;21.25;67.82;100407.48;1676710;84;21108;-87
2022/07/26 04:52:53;;;;;;;8.60;6.00;;;;;;;21.28;67.76;100406.52;1676456;84;21004;-87
2022/07/26 04:55:20;;;;;;;11.03;6.28;;;;;;;21.30;67.73;100402.90;1673135;84;21799;-87
2022/07/26 04:57:47;;;;;;;10.63;8.40;;;;;;;21.34;67.59;100403.23;1667053;84;21124;-87
2022/07/26 05:00:20;;;;;;;9.35;5.83;;;;;;;21.34;67.54;100401.90;1665566;84;21009;-87
2022/07/26 05:02:47;;;;;;;8.58;7.25;;;;;;;21.32;67.55;100396.14;1667059;85;21412;-86
2022/07/26 05:05:14;;;;;;;7.92;7.10;;;;;;;21.27;67.49;100394.06;1664296;84;21098;-88
2022/07/26 05:07:46;;;;;;;10.55;7.05;;;;;;;21.19;67.54;100407.64;1682070;83;21913;-88
2022/07/26 05:10:16;;;;;;;7.35;6.03;;;;;;;21.16;67.70;100423.30;1679471;84;21588;-85
2022/07/26 05:12:44;;;;;;;12.15;6.33;;;;;;;21.10;67.84;100428.80;1649856;85;21569;-85
2022/07/26 05:15:11;;;;;;;9.18;7.08;;;;;;;21.07;68.16;100434.68;1679619;84;21648;-85
2022/07/26 05:17:40;;;;;;;7.75;6.85;;;;;;;21.02;68.39;100433.47;1666768;83;21053;-86
2022/07/26 05:20:08;;;;;;;9.33;7.42;;;;;;;20.97;68.61;100440.70;1626199;85;23018;-86
2022/07/26 05:22:35;;;;;;;9.35;6.95;;;;;;;20.94;68.84;100447.45;1630910;86;21002;-86
2022/07/26 05:25:03;;;;;;;12.93;8.95;;;;;;;20.90;69.04;100443.97;1626156;86;21049;-86
2022/07/26 05:27:30;;;;;;;10.65;7.97;;;;;;;20.82;69.21;100439.72;1626720;86;21103;-85
2022/07/26 05:30:00;;;;;;;9.90;7.25;;;;;;;20.75;69.42;100453.21;1667923;85;21111;-86
2022/07/26 05:32:26;;;;;;;10.93;8.13;;;;;;;20.71;69.68;100440.82;1662174;84;21780;-86
2022/07/26 05:34:56;;;;;;;10.50;7.58;;;;;;;20.65;69.78;100457.02;1648413;86;21101;-86
2022/07/26 05:37:23;;;;;;;12.55;8.53;;;;;;;20.63;70.12;100459.27;1648545;85;21071;-86
2022/07/26 05:39:50;;;;;;;9.05;7.85;;;;;;;20.61;70.22;100437.94;1649979;86;21090;-86
2022/07/26 05:42:16;;;;;;;12.75;7.85;;;;;;;20.58;70.32;100430.80;1619780;87;20998;-86
2022/07/26 05:44:43;;;;;;;11.78;7.70;;;;;;;20.55;70.53;100450.95;1649428;85;22556;-86
2022/07/26 05:47:10;;;;;;;9.00;7.20;;;;;;;20.58;70.70;100456.21;1650017;85;21596;-89
2022/07/26 05:49:37;;;;;;;12.58;7.10;;;;;;;20.61;70.88;100468.69;1649665;85;21086;-89
2022/07/26 05:52:05;;;;;;;9.13;7.42;;;;;;;20.64;70.99;100472.62;1650871;85;21319;-89
2022/07/26 05:54:32;;;;;;;8.20;7.37;;;;;;;20.65;71.06;100473.05;1653421;85;21087;-90
2022/07/26 05:56:59;;;;;;;10.68;7.30;;;;;;;20.65;71.23;100481.08;1654488;85;21768;-88
2022/07/26 05:59:26;;;;;;;9.48;7.58;;;;;;;20.66;71.25;100468.58;1654464;85;21000;-88
2022/07/26 06:01:55;;;;;;;9.90;7.55;;;;;;;20.65;71.38;100453.00;1650404;85;21086;-89
2022/07/26 06:04:25;;;;;;;12.73;8.40;;;;;;;20.61;71.30;100450.41;1648787;86;22228;-89
2022/07/26 06:06:51;;;;;;;11.38;8.25;;;;;;;20.51;71.53;100451.03;1649304;85;21413;-88
2022/07/26 06:09:18;;;;;;;9.60;7.37;;;;;;;20.47;71.76;100456.89;1649665;85;21695;-90
2022/07/26 06:11:45;;;;;;;11.10;8.65;;;;;;;20.46;71.97;100454.24;1649782;86;21102;-89
2022/07/26 06:14:12;;;;;;;11.15;8.40;;;;;;;20.44;71.99;100462.32;1649596;86;21114;-90
2022/07/26 06:16:41;;;;;;;10.55;7.85;;;;;;;20.42;72.22;100459.23;1624797;87;21169;-89
2022/07/26 06:19:08;;;;;;;11.90;7.80;;;;;;;20.43;72.37;100459.67;1678999;83;21148;-89
2022/07/26 06:21:35;;;;;;;10.75;8.78;;;;;;;20.46;72.54;100458.25;1688781;84;23058;-89
2022/07/26 06:24:02;;;;;;;10.65;8.23;;;;;;;20.49;72.70;100455.06;1690643;83;21646;-89
2022/07/26 06:26:29;;;;;;;11.93;10.58;;;;;;;20.52;72.92;100452.34;1691086;83;21464;-89
2022/07/26 06:28:55;;;;;;;11.83;8.55;;;;;;;20.53;72.85;100462.56;1691050;83;21080;-89
2022/07/26 06:31:22;;;;;;;9.98;8.25;;;;;;;20.56;72.96;100459.38;1688288;83;21046;-89
2022/07/26 06:33:50;;;;;;;13.03;8.48;;;;;;;20.64;73.12;100462.39;1686418;83;21754;-88
2022/07/26 06:36:17;;;;;;;10.65;8.25;;;;;;;20.69;73.16;100469.86;1690933;83;21076;-89
2022/07/26 06:38:43;;;;;;;11.20;8.35;;;;;;;20.77;73.40;100486.62;1691014;84;21525;-89
2022/07/26 06:41:13;;;;;;;10.43;7.40;;;;;;;20.91;73.59;100507.70;1689853;83;21610;-89
2022/07/26 06:43:40;;;;;;;9.20;5.20;;;;;;;20.98;73.15;100521.39;1661904;84;21129;-89
2022/07/26 06:46:07;;;;;;;10.53;8.18;;;;;;;20.94;72.48;100543.31;1678679;84;21748;-89
2022/07/26 06:48:35;;;;;;;5.90;4.62;;;;;;;20.83;72.05;100550.68;1687280;84;21525;-90
2022/07/26 06:51:02;;;;;;;6.62;4.97;;;;;;;20.75;72.05;100557.52;1686840;84;21139;-89
2022/07/26 06:53:29;;;;;;;9.18;6.05;;;;;;;20.70;71.97;100563.45;1679562;84;21091;-89
2022/07/26 06:55:55;;;;;;;8.10;6.05;;;;;;;20.65;72.30;100552.41;1678845;84;22083;-88
2022/07/26 06:58:22;;;;;;;7.60;4.03;;;;;;;20.57;71.93;100532.45;1686078;84;21741;-89
2022/07/26 07:00:49;;;;;;;7.25;4.10;;;;;;;20.48;72.00;100521.97;1671092;84;21114;-89
2022/07/26 07:03:16;;;;;;;8.85;4.15;;;;;;;20.52;72.27;100517.84;1677027;85;21068;-89
2022/07/26 07:05:48;;;;;;;7.85;3.80;;;;;;;20.61;72.33;100536.88;1679438;85;21123;-89
2022/07/26 07:08:16;;;;;;;5.62;3.62;;;;;;;20.66;72.26;100550.15;1674997;84;21380;-89
2022/07/26 07:10:43;;;;;;;4.80;3.52;;;;;;;20.74;72.62;100569.16;1676811;84;22170;-90
2022/07/26 07:13:09;;;;;;;4.08;3.52;;;;;;;20.74;72.62;100569.16;1683677;84;21614;-90
2022/07/26 07:15:38;;;;;;;6.97;3.90;;;;;;;20.81;72.35;100569.02;1677804;84;21111;-89
2022/07/26 07:18:07;;;;;;;5.53;3.00;;;;;;;20.88;72.46;100556.83;1677085;83;21103;-90
2022/07/26 07:20:39;;;;;;;3.83;3.25;;;;;;;20.89;72.60;100537.20;1673836;85;21131;-90
2022/07/26 07:23:09;;;;;;;7.15;3.60;;;;;;;21.27;72.37;100543.97;1669293;85;21780;-89
2022/07/26 07:25:36;;;;;;;7.75;3.22;;;;;;;21.38;72.31;100549.06;1673404;84;21140;-89
2022/07/26 07:28:04;;;;;;;5.08;2.80;;;;;;;21.38;72.31;100549.06;1673956;84;21155;-89
2022/07/26 07:30:31;;;;;;;5.97;3.30;;;;;;;21.49;72.19;100560.44;1669812;85;21111;-90
2022/07/26 07:33:00;;;;;;;6.40;3.65;;;;;;;21.50;71.97;100568.91;1672318;85;21203;-89
2022/07/26 07:35:26;;;;;;;3.80;2.60;;;;;;;21.49;71.80;100567.13;1670862;84;21528;-91
2022/07/26 07:37:53;;;;;;;4.05;3.22;;;;;;;21.50;71.70;100576.47;1666280;85;21593;-89
2022/07/26 07:40:20;;;;;;;4.78;3.02;;;;;;;21.48;71.61;100572.95;1662482;85;21027;-90
2022/07/26 07:42:47;;;;;;;4.83;2.85;;;;;;;21.54;71.81;100566.11;1663920;85;22080;-89
2022/07/26 07:45:13;;;;;;;5.45;3.12;;;;;;;21.65;71.96;100548.45;1673877;84;21583;-89
2022/07/26 07:47:40;;;;;;;4.30;2.67;;;;;;;21.80;71.24;100538.30;1663261;85;22435;-88
2022/07/26 07:50:07;;;;;;;8.48;2.60;;;;;;;21.80;71.24;100538.30;1662347;85;21092;-89
2022/07/26 07:52:36;;;;;;;3.55;2.35;;;;;;;22.01;70.96;100556.97;1664170;84;21135;-90
2022/07/26 07:55:06;;;;;;;4.62;2.98;;;;;;;22.12;70.86;100552.20;1683518;83;21381;-89
2022/07/26 07:57:37;;;;;;;2.98;2.55;;;;;;;22.31;70.78;100552.64;1658842;84;21183;-89
2022/07/26 08:00:06;;;;;;;5.33;2.58;;;;;;;22.54;70.43;100564.54;1667819;83;21760;-90
2022/07/26 08:02:34;;;;;;;5.00;2.45;;;;;;;22.70;70.18;100565.88;1671417;85;21103;-90
2022/07/26 08:05:07;;;;;;;5.17;2.70;;;;;;;22.86;69.65;100563.63;1672496;84;21103;-90
2022/07/26 08:07:34;;;;;;;4.08;2.47;;;;;;;22.98;69.23;100566.44;1667347;85;21095;-90
2022/07/26 08:10:02;;;;;;;3.72;2.52;;;;;;;23.08;68.80;100572.84;1645650;85;38850;-90
2022/07/26 08:12:29;;;;;;;5.62;2.42;;;;;;;23.26;68.74;100573.24;1670906;85;22807;-90
2022/07/26 08:14:56;;;;;;;9.55;2.80;;;;;;;23.41;68.17;100575.45;1670689;85;21104;-90
2022/07/26 08:17:23;;;;;;;4.70;2.47;;;;;;;23.55;68.00;100568.77;1671786;84;21108;-90
2022/07/26 08:19:50;;;;;;;4.37;2.58;;;;;;;23.63;67.58;100569.38;1671338;84;21115;-90
2022/07/26 08:22:17;;;;;;;7.10;2.33;;;;;;;23.65;67.24;100571.59;1697237;83;21043;-91
2022/07/26 08:24:45;;;;;;;6.90;4.67;;;;;;;23.68;67.15;100575.02;1668653;85;22586;-90
2022/07/26 08:27:17;;;;;;;7.67;2.87;;;;;;;23.78;66.81;100574.29;1674951;83;21066;-90
2022/07/26 08:29:42;;;;;;;5.10;3.37;;;;;;;23.81;66.31;100567.95;1643633;84;21141;-90
2022/07/26 08:32:09;;;;;;;7.90;4.47;;;;;;;23.97;66.35;100579.97;1659706;83;22092;-89
2022/07/26 08:34:36;;;;;;;6.42;3.75;;;;;;;24.16;65.98;100580.70;1645982;84;22045;-90
2022/07/26 08:37:06;;;;;;;5.17;2.90;;;;;;;24.15;65.04;100581.61;1659973;84;22838;-90
2022/07/26 08:39:33;;;;;;;4.37;2.92;;;;;;;24.07;65.23;100581.88;1661082;83;21126;-90
2022/07/26 08:42:02;;;;;;;8.30;3.30;;;;;;;24.15;65.06;100584.30;1669669;85;21090;-90
2022/07/26 08:44:29;;;;;;;5.08;2.27;;;;;;;24.23;65.12;100580.44;1678969;84;21137;-90
2022/07/26 08:46:58;;;;;;;6.12;2.60;;;;;;;24.42;65.03;100591.42;1672716;84;21108;-88
2022/07/26 08:49:25;;;;;;;6.08;2.62;;;;;;;24.63;64.66;100588.47;1692518;83;21804;-91
2022/07/26 08:51:52;;;;;;;3.67;2.70;;;;;;;24.78;64.30;100590.20;1679962;84;21103;-90
2022/07/26 08:54:19;;;;;;;5.87;2.85;;;;;;;24.91;63.82;100582.08;1679702;85;21159;-90
2022/07/26 08:56:52;;;;;;;6.40;2.45;;;;;;;25.01;63.21;100575.87;1674829;85;21116;-90
2022/07/26 08:59:19;;;;;;;8.58;2.55;;;;;;;25.01;62.76;100581.27;1674643;85;21099;-90
2022/07/26 09:01:59;;;;;;;4.53;2.40;;;;;;;24.97;62.46;100576.94;1679999;84;21802;-90
2022/07/26 09:04:36;;;;;;;9.28;3.17;;;;;;;24.89;62.06;100570.50;1658745;84;21159;-90
2022/07/26 09:07:14;;;;;;;3.85;2.37;;;;;;;24.97;61.71;100588.58;1677453;84;21124;-90
2022/07/26 09:10:00;;;;;;;5.47;2.77;;;;;;;25.06;61.83;100589.16;1678006;84;21063;-89
2022/07/26 09:12:28;;;;;;;4.40;2.50;;;;;;;25.18;61.65;100589.57;1679162;84;21075;-90
2022/07/26 09:15:00;;;;;;;3.55;2.33;;;;;;;25.40;61.30;100596.39;1676912;84;21755;-89
2022/07/26 09:17:45;;;;;;;3.75;2.15;;;;;;;25.51;61.04;100591.03;1679449;84;21072;-90
2022/07/26 09:20:24;;;;;;;5.10;2.40;;;;;;;25.61;60.15;100589.75;1682096;85;21016;-89
2022/07/26 09:23:04;;;;;;;5.08;2.58;;;;;;;25.57;60.17;100590.34;1679150;84;21123;-90
2022/07/26 09:25:41;;;;;;;4.85;2.55;;;;;;;25.59;60.12;100588.45;1684321;84;21064;-90
2022/07/26 09:28:29;;;;;;;5.92;2.60;;;;;;;25.67;59.89;100592.19;1682644;84;21973;-90
2022/07/26 09:31:02;;;;;;;6.47;2.55;;;;;;;25.72;59.31;100599.63;1675945;84;21115;-90
2022/07/26 09:33:47;;;;;;;5.77;2.63;;;;;;;25.65;59.05;100601.29;1678998;85;22150;-90
2022/07/26 09:36:17;;;;;;;5.25;2.67;;;;;;;25.58;58.85;100594.80;1682448;84;21524;-89
2022/07/26 09:38:51;;;;;;;5.25;2.12;;;;;;;25.45;58.51;100592.64;1681924;85;21565;-90
2022/07/26 09:41:44;;;;;;;6.85;3.62;;;;;;;25.41;58.37;100591.88;1679486;83;21759;-90
2022/07/26 09:48:08;;;;;;;3.12;1.67;;;;;;;25.45;57.98;100596.68;1580988;89;21227;-89
2022/07/26 09:50:32;;;;;;;6.28;2.08;;;;;;;25.51;57.17;100600.03;1559895;90;21187;-89
2022/07/26 09:53:08;;;;;;;4.12;1.98;;;;;;;25.53;57.16;100595.45;1593626;87;21482;-89
2022/07/26 09:55:47;;;;;;;3.92;2.65;;;;;;;25.56;57.05;100598.00;1633263;86;22960;-89
2022/07/26 09:58:15;;;;;;;4.65;2.62;;;;;;;25.55;56.48;100607.52;1649680;84;21691;-89
2022/07/26 10:00:42;;;;;;;4.67;2.00;;;;;;;25.50;56.13;100605.47;1656998;85;21644;-89
2022/07/26 10:03:12;;;;;;;5.15;3.52;;;;;;;25.49;56.25;100605.05;1662173;84;21118;-89
2022/07/26 10:05:38;;;;;;;4.33;2.27;;;;;;;25.59;55.99;100599.23;1644689;84;22226;-89
2022/07/26 10:08:04;;;;;;;4.85;2.00;;;;;;;25.66;55.60;100608.42;1666917;84;21747;-90
2022/07/26 10:10:44;;;;;;;3.35;2.00;;;;;;;25.74;55.31;100599.58;1670846;84;21142;-88
2022/07/26 10:13:11;;;;;;;5.40;2.12;;;;;;;25.85;54.95;100609.45;1668422;85;21108;-89
2022/07/26 10:15:49;;;;;;;4.30;1.85;;;;;;;26.02;54.87;100610.14;1668431;84;21138;-89
2022/07/26 10:18:41;;;;;;;5.47;1.87;;;;;;;26.28;54.72;100610.39;1646572;85;21708;-88
2022/07/26 10:21:22;;;;;;;4.05;3.22;;;;;;;26.37;54.04;100609.10;1681527;83;21169;-89
2022/07/26 10:23:57;;;;;;;4.15;2.55;;;;;;;26.36;53.17;100612.28;1698396;83;21072;-88
2022/07/26 10:26:34;;;;;;;5.22;2.40;;;;;;;26.39;53.14;100615.34;1693618;83;21099;-89
2022/07/26 10:29:23;;;;;;;3.58;1.70;;;;;;;26.49;52.68;100621.21;1691197;83;21484;-89
2022/07/26 10:32:03;;;;;;;5.33;1.77;;;;;;;26.60;52.72;100616.25;1703666;82;21092;-88
2022/07/26 10:34:35;;;;;;;4.08;2.62;;;;;;;26.63;52.47;100622.84;1675317;84;21803;-89
2022/07/26 10:37:07;;;;;;;4.65;1.80;;;;;;;26.66;52.19;100621.86;1701404;82;21111;-89
2022/07/26 10:39:34;;;;;;;3.15;1.98;;;;;;;26.73;51.85;100626.05;1697201;83;21139;-89
2022/07/26 10:42:07;;;;;;;3.70;2.47;;;;;;;26.75;51.01;100623.67;1674686;84;21123;-88
2022/07/26 10:44:43;;;;;;;4.25;1.82;;;;;;;26.73;50.96;100627.39;1679841;84;21163;-89
2022/07/26 10:47:18;;;;;;;5.00;2.90;;;;;;;26.76;51.13;100624.54;1684685;84;21459;-89
2022/07/26 10:50:00;;;;;;;2.23;1.40;;;;;;;26.91;50.62;100622.49;1676223;84;21552;-89
2022/07/26 10:52:29;;;;;;;3.70;1.70;;;;;;;26.99;50.41;100626.23;1677006;84;21142;-89
2022/07/26 10:55:05;;;;;;;4.72;1.77;;;;;;;27.17;50.32;100625.84;1681257;85;22175;-89
2022/07/26 10:57:44;;;;;;;7.42;2.20;;;;;;;27.29;49.90;100631.17;1686652;84;21040;-89
2022/07/26 11:00:26;;;;;;;2.40;1.52;;;;;;;27.36;49.37;100633.13;1678713;85;21727;-89
2022/07/26 11:02:56;;;;;;;4.23;1.80;;;;;;;27.37;48.97;100633.06;1673672;85;21009;-89
2022/07/26 11:05:27;;;;;;;3.52;1.70;;;;;;;27.31;48.57;100623.87;1688981;84;21136;-90
2022/07/26 11:08:15;;;;;;;6.65;2.00;;;;;;;27.35;48.47;100633.62;1688079;84;21075;-89
2022/07/26 11:10:46;;;;;;;5.50;1.60;;;;;;;27.46;48.02;100641.20;1702533;83;20998;-89
2022/07/26 11:13:19;;;;;;;1.80;1.35;;;;;;;27.52;47.69;100632.81;1669852;84;21725;-90
2022/07/26 11:15:53;;;;;;;4.08;1.70;;;;;;;27.57;47.65;100639.34;1678334;84;21444;-89
2022/07/26 11:18:23;;;;;;;3.92;2.08;;;;;;;27.61;47.28;100633.73;1683762;84;21016;-89
2022/07/26 11:20:55;;;;;;;3.52;1.70;;;;;;;27.69;47.21;100635.58;1675519;85;21005;-89
2022/07/26 11:23:33;;;;;;;2.92;1.42;;;;;;;27.72;46.97;100640.86;1666739;84;21646;-89
2022/07/26 11:26:11;;;;;;;3.05;2.27;;;;;;;27.80;46.79;100644.98;1669164;84;23152;-88
2022/07/26 11:28:54;;;;;;;5.22;3.33;;;;;;;27.92;46.44;100653.91;1669882;84;21024;-89
2022/07/26 11:31:28;;;;;;;2.22;1.60;;;;;;;27.89;46.11;100655.39;1668075;85;21040;-89
2022/07/26 11:33:55;;;;;;;4.20;2.80;;;;;;;27.69;46.03;100655.86;1670739;84;21108;-89
2022/07/26 11:36:34;;;;;;;5.08;1.90;;;;;;;27.56;45.92;100659.23;1673217;85;21081;-89
2022/07/26 11:39:02;;;;;;;12.28;2.00;;;;;;;27.42;46.14;100655.33;1672969;84;21781;-89
2022/07/26 11:41:29;;;;;;;5.67;2.25;;;;;;;27.41;46.17;100652.72;1671903;84;21082;-89
2022/07/26 11:43:56;;;;;;;3.17;1.72;;;;;;;27.30;45.68;100659.48;1670444;84;21171;-89
2022/07/26 11:46:23;;;;;;;5.53;1.60;;;;;;;27.22;46.17;100658.08;1666988;85;21085;-89